Terminal Aerodrome Forecast
Issued by NWS

Home | Current Version | Previous Version | Text Only | Print | Product List | Glossary On
Versions: 1 2 3 4 5 6 7 8 9 10 11 12 13 14 15 16 17 18 19 20 21 22 23 24 25 26 27 28 29 30 31 32
413
FTUS45 KBYZ 082320
TAFLVM
TAF
KLVM 082320Z 0900/0924 26020G30KT P6SM SCT060 BKN150
     FM090500 22020G35KT P6SM BKN150
     FM091800 25020G30KT P6SM SCT150=

USA.gov is the U.S. government's official web portal to all federal, state and local government web resources and services.